sensor_id;sensor_type;location;lat;lon;timestamp;P1;durP1;ratioP1;P2;durP2;ratioP2
71667;SDS011;59504;54.806;9.640;2023-04-03T00:00:44;8.63;;;2.20;;
71667;SDS011;59504;54.806;9.640;2023-04-03T00:03:05;5.00;;;1.80;;
71667;SDS011;59504;54.806;9.640;2023-04-03T00:05:25;5.35;;;1.60;;
71667;SDS011;59504;54.806;9.640;2023-04-03T00:07:46;8.27;;;2.10;;
71667;SDS011;59504;54.806;9.640;2023-04-03T00:10:07;5.78;;;1.70;;
71667;SDS011;59504;54.806;9.640;2023-04-03T00:12:28;8.55;;;2.45;;
71667;SDS011;59504;54.806;9.640;2023-04-03T00:14:49;6.03;;;1.83;;
71667;SDS011;59504;54.806;9.640;2023-04-03T00:17:09;4.63;;;1.70;;
71667;SDS011;59504;54.806;9.640;2023-04-03T00:19:30;4.85;;;1.90;;
71667;SDS011;59504;54.806;9.640;2023-04-03T00:21:48;6.75;;;2.03;;
71667;SDS011;59504;54.806;9.640;2023-04-03T00:24:08;4.80;;;1.80;;
71667;SDS011;59504;54.806;9.640;2023-04-03T00:26:29;2.83;;;1.60;;
71667;SDS011;59504;54.806;9.640;2023-04-03T00:28:41;6.95;;;2.22;;
71667;SDS011;59504;54.806;9.640;2023-04-03T00:31:01;4.97;;;2.00;;
71667;SDS011;59504;54.806;9.640;2023-04-03T00:33:22;7.85;;;1.80;;
71667;SDS011;59504;54.806;9.640;2023-04-03T00:35:44;5.90;;;2.10;;
71667;SDS011;59504;54.806;9.640;2023-04-03T00:38:08;3.75;;;2.10;;
71667;SDS011;59504;54.806;9.640;2023-04-03T00:40:32;6.90;;;2.03;;
71667;SDS011;59504;54.806;9.640;2023-04-03T00:42:58;5.47;;;2.03;;
71667;SDS011;59504;54.806;9.640;2023-04-03T00:47:45;6.90;;;2.15;;
71667;SDS011;59504;54.806;9.640;2023-04-03T00:50:06;5.13;;;2.08;;
71667;SDS011;59504;54.806;9.640;2023-04-03T00:52:08;8.82;;;2.00;;
71667;SDS011;59504;54.806;9.640;2023-04-03T00:54:16;6.28;;;1.80;;
71667;SDS011;59504;54.806;9.640;2023-04-03T00:56:38;6.65;;;1.63;;
71667;SDS011;59504;54.806;9.640;2023-04-03T00:58:59;3.85;;;1.92;;
71667;SDS011;59504;54.806;9.640;2023-04-03T01:01:25;4.18;;;1.80;;
71667;SDS011;59504;54.806;9.640;2023-04-03T01:03:47;6.45;;;1.80;;
71667;SDS011;59504;54.806;9.640;2023-04-03T01:06:08;6.82;;;1.58;;
71667;SDS011;59504;54.806;9.640;2023-04-03T01:08:29;5.50;;;2.30;;
71667;SDS011;59504;54.806;9.640;2023-04-03T01:10:50;4.03;;;1.83;;
71667;SDS011;59504;54.806;9.640;2023-04-03T01:12:51;7.40;;;1.75;;
71667;SDS011;59504;54.806;9.640;2023-04-03T01:14:54;9.60;;;2.28;;
71667;SDS011;59504;54.806;9.640;2023-04-03T01:17:03;5.35;;;1.77;;
71667;SDS011;59504;54.806;9.640;2023-04-03T01:19:44;6.07;;;2.03;;
71667;SDS011;59504;54.806;9.640;2023-04-03T01:22:21;3.10;;;1.35;;
71667;SDS011;59504;54.806;9.640;2023-04-03T01:24:52;3.33;;;1.65;;
71667;SDS011;59504;54.806;9.640;2023-04-03T01:27:13;4.88;;;1.83;;
71667;SDS011;59504;54.806;9.640;2023-04-03T01:29:34;4.13;;;1.98;;
71667;SDS011;59504;54.806;9.640;2023-04-03T01:31:59;4.40;;;1.90;;
71667;SDS011;59504;54.806;9.640;2023-04-03T01:34:20;10.10;;;2.30;;
71667;SDS011;59504;54.806;9.640;2023-04-03T01:36:41;8.43;;;2.03;;
71667;SDS011;59504;54.806;9.640;2023-04-03T01:39:03;7.35;;;2.05;;
71667;SDS011;59504;54.806;9.640;2023-04-03T01:41:04;6.97;;;2.35;;
71667;SDS011;59504;54.806;9.640;2023-04-03T01:43:18;8.02;;;2.03;;
71667;SDS011;59504;54.806;9.640;2023-04-03T01:45:39;11.30;;;2.10;;
71667;SDS011;59504;54.806;9.640;2023-04-03T01:47:59;5.07;;;1.75;;
71667;SDS011;59504;54.806;9.640;2023-04-03T01:50:04;10.32;;;2.08;;
71667;SDS011;59504;54.806;9.640;2023-04-03T01:52:25;7.50;;;2.03;;
71667;SDS011;59504;54.806;9.640;2023-04-03T01:54:46;9.52;;;2.17;;
71667;SDS011;59504;54.806;9.640;2023-04-03T01:57:07;4.85;;;1.75;;
71667;SDS011;59504;54.806;9.640;2023-04-03T01:59:27;5.18;;;1.70;;
71667;SDS011;59504;54.806;9.640;2023-04-03T02:01:48;7.00;;;1.92;;
71667;SDS011;59504;54.806;9.640;2023-04-03T02:04:09;7.32;;;1.83;;
71667;SDS011;59504;54.806;9.640;2023-04-03T02:06:29;8.65;;;1.95;;
71667;SDS011;59504;54.806;9.640;2023-04-03T02:08:50;6.95;;;1.73;;
71667;SDS011;59504;54.806;9.640;2023-04-03T02:11:10;7.60;;;2.08;;
71667;SDS011;59504;54.806;9.640;2023-04-03T02:13:31;4.60;;;1.80;;
71667;SDS011;59504;54.806;9.640;2023-04-03T02:15:52;4.35;;;2.00;;
71667;SDS011;59504;54.806;9.640;2023-04-03T02:17:52;8.45;;;2.35;;
71667;SDS011;59504;54.806;9.640;2023-04-03T02:19:56;6.32;;;1.80;;
71667;SDS011;59504;54.806;9.640;2023-04-03T02:22:11;8.38;;;2.20;;
71667;SDS011;59504;54.806;9.640;2023-04-03T02:24:32;5.60;;;1.98;;
71667;SDS011;59504;54.806;9.640;2023-04-03T02:26:52;9.50;;;2.03;;
71667;SDS011;59504;54.806;9.640;2023-04-03T02:29:13;7.57;;;2.10;;
71667;SDS011;59504;54.806;9.640;2023-04-03T02:31:34;6.50;;;1.92;;
71667;SDS011;59504;54.806;9.640;2023-04-03T02:33:55;5.28;;;2.15;;
71667;SDS011;59504;54.806;9.640;2023-04-03T02:36:15;7.93;;;2.22;;
71667;SDS011;59504;54.806;9.640;2023-04-03T02:38:36;6.95;;;1.95;;
71667;SDS011;59504;54.806;9.640;2023-04-03T02:41:03;9.63;;;2.42;;
71667;SDS011;59504;54.806;9.640;2023-04-03T02:43:26;4.35;;;1.75;;
71667;SDS011;59504;54.806;9.640;2023-04-03T02:45:29;7.75;;;2.50;;
71667;SDS011;59504;54.806;9.640;2023-04-03T02:47:30;7.50;;;2.78;;
71667;SDS011;59504;54.806;9.640;2023-04-03T02:49:31;13.60;;;4.25;;
71667;SDS011;59504;54.806;9.640;2023-04-03T02:51:32;16.48;;;5.03;;
71667;SDS011;59504;54.806;9.640;2023-04-03T02:53:50;11.30;;;3.80;;
71667;SDS011;59504;54.806;9.640;2023-04-03T02:56:10;9.88;;;3.20;;
71667;SDS011;59504;54.806;9.640;2023-04-03T02:58:31;5.03;;;2.60;;
71667;SDS011;59504;54.806;9.640;2023-04-03T03:00:52;5.13;;;2.05;;
71667;SDS011;59504;54.806;9.640;2023-04-03T03:03:13;5.78;;;1.98;;
71667;SDS011;59504;54.806;9.640;2023-04-03T03:05:34;5.13;;;1.90;;
71667;SDS011;59504;54.806;9.640;2023-04-03T03:07:56;6.03;;;2.00;;
71667;SDS011;59504;54.806;9.640;2023-04-03T03:10:16;7.50;;;1.98;;
71667;SDS011;59504;54.806;9.640;2023-04-03T03:12:38;5.53;;;1.80;;
71667;SDS011;59504;54.806;9.640;2023-04-03T03:14:58;9.00;;;2.10;;
71667;SDS011;59504;54.806;9.640;2023-04-03T03:17:19;11.23;;;2.38;;
71667;SDS011;59504;54.806;9.640;2023-04-03T03:19:20;7.07;;;2.05;;
71667;SDS011;59504;54.806;9.640;2023-04-03T03:21:21;5.68;;;2.00;;
71667;SDS011;59504;54.806;9.640;2023-04-03T03:23:22;6.05;;;1.90;;
71667;SDS011;59504;54.806;9.640;2023-04-03T03:25:24;11.90;;;2.58;;
71667;SDS011;59504;54.806;9.640;2023-04-03T03:27:25;5.90;;;1.92;;
71667;SDS011;59504;54.806;9.640;2023-04-03T03:29:25;6.63;;;2.22;;
71667;SDS011;59504;54.806;9.640;2023-04-03T03:31:29;5.80;;;1.90;;
71667;SDS011;59504;54.806;9.640;2023-04-03T03:33:49;6.03;;;2.03;;
71667;SDS011;59504;54.806;9.640;2023-04-03T03:36:09;6.40;;;2.25;;
71667;SDS011;59504;54.806;9.640;2023-04-03T03:38:10;8.30;;;2.47;;
71667;SDS011;59504;54.806;9.640;2023-04-03T03:40:31;12.68;;;2.00;;
71667;SDS011;59504;54.806;9.640;2023-04-03T03:42:52;7.18;;;2.10;;
71667;SDS011;59504;54.806;9.640;2023-04-03T03:45:12;10.45;;;2.42;;
71667;SDS011;59504;54.806;9.640;2023-04-03T03:47:33;9.25;;;2.60;;
71667;SDS011;59504;54.806;9.640;2023-04-03T03:49:54;5.50;;;2.22;;
71667;SDS011;59504;54.806;9.640;2023-04-03T03:52:15;5.28;;;2.28;;
71667;SDS011;59504;54.806;9.640;2023-04-03T03:54:36;7.70;;;2.40;;
71667;SDS011;59504;54.806;9.640;2023-04-03T03:56:57;11.57;;;2.38;;
71667;SDS011;59504;54.806;9.640;2023-04-03T03:59:18;9.40;;;2.55;;
71667;SDS011;59504;54.806;9.640;2023-04-03T04:01:18;4.93;;;1.95;;
71667;SDS011;59504;54.806;9.640;2023-04-03T04:03:19;8.35;;;2.40;;
71667;SDS011;59504;54.806;9.640;2023-04-03T04:05:20;8.02;;;2.08;;
71667;SDS011;59504;54.806;9.640;2023-04-03T04:07:21;10.75;;;2.50;;
71667;SDS011;59504;54.806;9.640;2023-04-03T04:09:22;8.85;;;2.80;;
71667;SDS011;59504;54.806;9.640;2023-04-03T04:11:32;5.18;;;2.30;;
71667;SDS011;59504;54.806;9.640;2023-04-03T04:13:53;10.23;;;2.60;;
71667;SDS011;59504;54.806;9.640;2023-04-03T04:16:13;6.63;;;2.35;;
71667;SDS011;59504;54.806;9.640;2023-04-03T04:18:34;11.18;;;2.75;;
71667;SDS011;59504;54.806;9.640;2023-04-03T04:20:55;7.50;;;2.58;;
71667;SDS011;59504;54.806;9.640;2023-04-03T04:23:16;6.68;;;2.58;;
71667;SDS011;59504;54.806;9.640;2023-04-03T04:25:38;7.57;;;2.30;;
71667;SDS011;59504;54.806;9.640;2023-04-03T04:27:58;7.22;;;2.20;;
71667;SDS011;59504;54.806;9.640;2023-04-03T04:30:19;7.20;;;2.13;;
71667;SDS011;59504;54.806;9.640;2023-04-03T04:32:40;9.50;;;2.38;;
71667;SDS011;59504;54.806;9.640;2023-04-03T04:35:00;7.63;;;2.45;;
71667;SDS011;59504;54.806;9.640;2023-04-03T04:37:21;7.63;;;2.63;;
71667;SDS011;59504;54.806;9.640;2023-04-03T04:39:42;4.90;;;2.30;;
71667;SDS011;59504;54.806;9.640;2023-04-03T04:41:42;7.70;;;2.50;;
71667;SDS011;59504;54.806;9.640;2023-04-03T04:43:43;10.88;;;3.00;;
71667;SDS011;59504;54.806;9.640;2023-04-03T04:45:44;6.38;;;2.78;;
71667;SDS011;59504;54.806;9.640;2023-04-03T04:47:45;8.25;;;2.70;;
71667;SDS011;59504;54.806;9.640;2023-04-03T04:49:51;7.07;;;2.65;;
71667;SDS011;59504;54.806;9.640;2023-04-03T04:52:12;9.20;;;3.17;;
71667;SDS011;59504;54.806;9.640;2023-04-03T04:54:12;11.57;;;3.53;;
71667;SDS011;59504;54.806;9.640;2023-04-03T04:56:33;10.70;;;2.67;;
71667;SDS011;59504;54.806;9.640;2023-04-03T04:58:54;8.77;;;3.10;;
71667;SDS011;59504;54.806;9.640;2023-04-03T05:01:08;6.38;;;2.58;;
71667;SDS011;59504;54.806;9.640;2023-04-03T05:03:31;9.13;;;2.95;;
71667;SDS011;59504;54.806;9.640;2023-04-03T05:05:52;10.00;;;2.75;;
71667;SDS011;59504;54.806;9.640;2023-04-03T05:08:12;6.53;;;2.20;;
71667;SDS011;59504;54.806;9.640;2023-04-03T05:10:33;11.05;;;2.50;;
71667;SDS011;59504;54.806;9.640;2023-04-03T05:12:54;9.85;;;3.17;;
71667;SDS011;59504;54.806;9.640;2023-04-03T05:15:14;11.38;;;2.85;;
71667;SDS011;59504;54.806;9.640;2023-04-03T05:17:35;8.82;;;2.30;;
71667;SDS011;59504;54.806;9.640;2023-04-03T05:19:56;8.20;;;2.53;;
71667;SDS011;59504;54.806;9.640;2023-04-03T05:22:16;12.13;;;3.63;;
71667;SDS011;59504;54.806;9.640;2023-04-03T05:24:37;7.30;;;2.55;;
71667;SDS011;59504;54.806;9.640;2023-04-03T05:26:57;16.25;;;2.75;;
71667;SDS011;59504;54.806;9.640;2023-04-03T05:29:18;6.05;;;2.28;;
71667;SDS011;59504;54.806;9.640;2023-04-03T05:31:39;7.60;;;2.50;;
71667;SDS011;59504;54.806;9.640;2023-04-03T05:34:00;3.90;;;2.22;;
71667;SDS011;59504;54.806;9.640;2023-04-03T05:36:21;5.22;;;2.03;;
71667;SDS011;59504;54.806;9.640;2023-04-03T05:38:41;3.88;;;2.22;;
71667;SDS011;59504;54.806;9.640;2023-04-03T05:41:02;8.23;;;2.55;;
71667;SDS011;59504;54.806;9.640;2023-04-03T05:43:03;7.80;;;2.63;;
71667;SDS011;59504;54.806;9.640;2023-04-03T05:45:04;7.07;;;2.33;;
71667;SDS011;59504;54.806;9.640;2023-04-03T05:47:05;7.85;;;2.55;;
71667;SDS011;59504;54.806;9.640;2023-04-03T05:49:26;8.00;;;2.30;;
71667;SDS011;59504;54.806;9.640;2023-04-03T05:51:34;8.75;;;2.53;;
71667;SDS011;59504;54.806;9.640;2023-04-03T05:54:17;8.38;;;2.45;;
71667;SDS011;59504;54.806;9.640;2023-04-03T05:56:43;5.70;;;2.58;;
71667;SDS011;59504;54.806;9.640;2023-04-03T05:59:03;9.75;;;2.88;;
71667;SDS011;59504;54.806;9.640;2023-04-03T06:01:24;6.72;;;2.65;;
71667;SDS011;59504;54.806;9.640;2023-04-03T06:03:45;7.80;;;2.78;;
71667;SDS011;59504;54.806;9.640;2023-04-03T06:06:05;4.80;;;2.25;;
71667;SDS011;59504;54.806;9.640;2023-04-03T06:08:28;7.50;;;2.72;;
71667;SDS011;59504;54.806;9.640;2023-04-03T06:10:49;8.05;;;2.47;;
71667;SDS011;59504;54.806;9.640;2023-04-03T06:13:10;7.60;;;2.45;;
71667;SDS011;59504;54.806;9.640;2023-04-03T06:15:31;8.00;;;2.53;;
71667;SDS011;59504;54.806;9.640;2023-04-03T06:17:52;7.07;;;2.53;;
71667;SDS011;59504;54.806;9.640;2023-04-03T06:20:12;9.15;;;3.25;;
71667;SDS011;59504;54.806;9.640;2023-04-03T06:22:13;5.10;;;2.35;;
71667;SDS011;59504;54.806;9.640;2023-04-03T06:24:15;6.70;;;2.53;;
71667;SDS011;59504;54.806;9.640;2023-04-03T06:26:17;7.90;;;2.50;;
71667;SDS011;59504;54.806;9.640;2023-04-03T06:28:17;10.68;;;2.70;;
71667;SDS011;59504;54.806;9.640;2023-04-03T06:30:19;9.05;;;2.63;;
71667;SDS011;59504;54.806;9.640;2023-04-03T06:32:20;9.65;;;2.42;;
71667;SDS011;59504;54.806;9.640;2023-04-03T06:34:20;6.55;;;2.47;;
71667;SDS011;59504;54.806;9.640;2023-04-03T06:36:21;4.95;;;2.35;;
71667;SDS011;59504;54.806;9.640;2023-04-03T06:38:42;6.43;;;2.55;;
71667;SDS011;59504;54.806;9.640;2023-04-03T06:41:02;9.70;;;2.88;;
71667;SDS011;59504;54.806;9.640;2023-04-03T06:43:23;10.43;;;2.95;;
71667;SDS011;59504;54.806;9.640;2023-04-03T06:45:44;7.60;;;3.30;;
71667;SDS011;59504;54.806;9.640;2023-04-03T06:48:05;11.05;;;2.80;;
71667;SDS011;59504;54.806;9.640;2023-04-03T06:50:26;8.07;;;2.70;;
71667;SDS011;59504;54.806;9.640;2023-04-03T06:52:47;9.32;;;3.53;;
71667;SDS011;59504;54.806;9.640;2023-04-03T06:54:47;10.20;;;2.80;;
71667;SDS011;59504;54.806;9.640;2023-04-03T06:56:48;8.25;;;2.70;;
71667;SDS011;59504;54.806;9.640;2023-04-03T06:58:49;10.20;;;2.75;;
71667;SDS011;59504;54.806;9.640;2023-04-03T07:00:51;9.82;;;3.13;;
71667;SDS011;59504;54.806;9.640;2023-04-03T07:02:52;8.27;;;3.13;;
71667;SDS011;59504;54.806;9.640;2023-04-03T07:04:53;8.93;;;3.08;;
71667;SDS011;59504;54.806;9.640;2023-04-03T07:06:55;10.73;;;3.15;;
71667;SDS011;59504;54.806;9.640;2023-04-03T07:09:15;14.93;;;3.03;;
71667;SDS011;59504;54.806;9.640;2023-04-03T07:11:36;7.68;;;2.72;;
71667;SDS011;59504;54.806;9.640;2023-04-03T07:13:57;13.77;;;3.33;;
71667;SDS011;59504;54.806;9.640;2023-04-03T07:16:18;5.63;;;2.72;;
71667;SDS011;59504;54.806;9.640;2023-04-03T07:18:39;6.57;;;2.67;;
71667;SDS011;59504;54.806;9.640;2023-04-03T07:21:00;7.50;;;3.03;;
71667;SDS011;59504;54.806;9.640;2023-04-03T07:23:20;6.95;;;3.00;;
71667;SDS011;59504;54.806;9.640;2023-04-03T07:25:48;10.52;;;2.97;;
71667;SDS011;59504;54.806;9.640;2023-04-03T07:27:50;6.85;;;2.80;;
71667;SDS011;59504;54.806;9.640;2023-04-03T07:29:50;8.18;;;3.58;;
71667;SDS011;59504;54.806;9.640;2023-04-03T07:31:51;7.78;;;2.70;;
71667;SDS011;59504;54.806;9.640;2023-04-03T07:34:12;7.55;;;2.72;;
71667;SDS011;59504;54.806;9.640;2023-04-03T07:36:33;21.67;;;3.42;;
71667;SDS011;59504;54.806;9.640;2023-04-03T07:38:41;9.13;;;2.85;;
71667;SDS011;59504;54.806;9.640;2023-04-03T07:41:02;9.88;;;3.10;;
71667;SDS011;59504;54.806;9.640;2023-04-03T07:43:23;11.18;;;2.78;;
71667;SDS011;59504;54.806;9.640;2023-04-03T07:45:29;6.63;;;2.67;;
71667;SDS011;59504;54.806;9.640;2023-04-03T07:47:50;7.10;;;2.72;;
71667;SDS011;59504;54.806;9.640;2023-04-03T07:50:11;9.48;;;2.85;;
71667;SDS011;59504;54.806;9.640;2023-04-03T07:52:32;8.05;;;2.88;;
71667;SDS011;59504;54.806;9.640;2023-04-03T07:54:53;10.20;;;2.97;;
71667;SDS011;59504;54.806;9.640;2023-04-03T07:57:13;9.07;;;2.33;;
71667;SDS011;59504;54.806;9.640;2023-04-03T07:59:34;9.88;;;2.95;;
71667;SDS011;59504;54.806;9.640;2023-04-03T08:01:54;6.53;;;3.00;;
71667;SDS011;59504;54.806;9.640;2023-04-03T08:04:18;7.50;;;2.78;;
71667;SDS011;59504;54.806;9.640;2023-04-03T08:06:39;7.40;;;2.85;;
71667;SDS011;59504;54.806;9.640;2023-04-03T08:08:59;10.40;;;2.88;;
71667;SDS011;59504;54.806;9.640;2023-04-03T08:11:20;8.50;;;2.70;;
71667;SDS011;59504;54.806;9.640;2023-04-03T08:13:41;10.70;;;3.33;;
71667;SDS011;59504;54.806;9.640;2023-04-03T08:16:13;8.23;;;2.75;;
71667;SDS011;59504;54.806;9.640;2023-04-03T08:18:37;9.05;;;2.65;;
71667;SDS011;59504;54.806;9.640;2023-04-03T08:20:59;9.18;;;3.08;;
71667;SDS011;59504;54.806;9.640;2023-04-03T08:23:20;7.97;;;2.65;;
71667;SDS011;59504;54.806;9.640;2023-04-03T08:25:41;9.70;;;3.22;;
71667;SDS011;59504;54.806;9.640;2023-04-03T08:28:02;6.30;;;2.30;;
71667;SDS011;59504;54.806;9.640;2023-04-03T08:30:22;6.38;;;2.55;;
71667;SDS011;59504;54.806;9.640;2023-04-03T08:32:43;9.80;;;3.33;;
71667;SDS011;59504;54.806;9.640;2023-04-03T08:35:04;13.23;;;2.78;;
71667;SDS011;59504;54.806;9.640;2023-04-03T08:37:25;8.40;;;2.72;;
71667;SDS011;59504;54.806;9.640;2023-04-03T08:39:46;10.20;;;2.70;;
71667;SDS011;59504;54.806;9.640;2023-04-03T08:42:14;10.07;;;2.88;;
71667;SDS011;59504;54.806;9.640;2023-04-03T08:50:02;9.38;;;2.63;;
71667;SDS011;59504;54.806;9.640;2023-04-03T08:52:35;6.20;;;2.90;;
71667;SDS011;59504;54.806;9.640;2023-04-03T08:54:58;6.88;;;2.55;;
71667;SDS011;59504;54.806;9.640;2023-04-03T08:57:44;9.70;;;2.97;;
71667;SDS011;59504;54.806;9.640;2023-04-03T09:02:41;8.45;;;2.70;;
71667;SDS011;59504;54.806;9.640;2023-04-03T09:05:17;13.23;;;3.45;;
71667;SDS011;59504;54.806;9.640;2023-04-03T09:07:42;9.88;;;2.65;;
71667;SDS011;59504;54.806;9.640;2023-04-03T09:10:09;9.70;;;3.35;;
71667;SDS011;59504;54.806;9.640;2023-04-03T09:12:37;7.15;;;3.20;;
71667;SDS011;59504;54.806;9.640;2023-04-03T09:23:18;18.55;;;3.28;;
71667;SDS011;59504;54.806;9.640;2023-04-03T09:26:08;14.63;;;3.15;;
71667;SDS011;59504;54.806;9.640;2023-04-03T09:28:52;10.48;;;2.63;;
71667;SDS011;59504;54.806;9.640;2023-04-03T09:33:38;10.07;;;2.40;;
71667;SDS011;59504;54.806;9.640;2023-04-03T09:35:58;14.25;;;2.38;;
71667;SDS011;59504;54.806;9.640;2023-04-03T09:38:19;6.80;;;2.22;;
71667;SDS011;59504;54.806;9.640;2023-04-03T09:45:02;11.13;;;2.63;;
71667;SDS011;59504;54.806;9.640;2023-04-03T09:47:24;9.60;;;2.97;;
71667;SDS011;59504;54.806;9.640;2023-04-03T09:49:46;9.10;;;2.57;;
71667;SDS011;59504;54.806;9.640;2023-04-03T09:52:19;5.65;;;2.38;;
71667;SDS011;59504;54.806;9.640;2023-04-03T09:54:41;8.52;;;2.78;;
71667;SDS011;59504;54.806;9.640;2023-04-03T09:57:06;10.35;;;3.25;;
71667;SDS011;59504;54.806;9.640;2023-04-03T09:59:33;9.35;;;3.00;;
71667;SDS011;59504;54.806;9.640;2023-04-03T10:01:57;13.52;;;3.00;;
71667;SDS011;59504;54.806;9.640;2023-04-03T10:04:19;11.45;;;3.10;;
71667;SDS011;59504;54.806;9.640;2023-04-03T10:06:41;8.65;;;2.30;;
71667;SDS011;59504;54.806;9.640;2023-04-03T10:09:06;11.82;;;2.50;;
71667;SDS011;59504;54.806;9.640;2023-04-03T10:11:37;9.43;;;1.83;;
71667;SDS011;59504;54.806;9.640;2023-04-03T10:13:57;9.57;;;2.30;;
71667;SDS011;59504;54.806;9.640;2023-04-03T10:16:20;10.32;;;2.25;;
71667;SDS011;59504;54.806;9.640;2023-04-03T10:21:46;7.82;;;2.25;;
71667;SDS011;59504;54.806;9.640;2023-04-03T10:26:47;7.43;;;2.60;;
71667;SDS011;59504;54.806;9.640;2023-04-03T10:29:21;8.02;;;2.00;;
71667;SDS011;59504;54.806;9.640;2023-04-03T10:32:51;8.25;;;1.80;;
71667;SDS011;59504;54.806;9.640;2023-04-03T10:34:51;9.63;;;1.92;;
71667;SDS011;59504;54.806;9.640;2023-04-03T10:53:39;9.35;;;1.77;;
71667;SDS011;59504;54.806;9.640;2023-04-03T10:58:57;5.57;;;1.60;;
71667;SDS011;59504;54.806;9.640;2023-04-03T11:01:24;12.65;;;2.17;;
71667;SDS011;59504;54.806;9.640;2023-04-03T11:03:52;8.68;;;1.60;;
71667;SDS011;59504;54.806;9.640;2023-04-03T11:06:13;3.95;;;1.27;;
71667;SDS011;59504;54.806;9.640;2023-04-03T11:08:36;4.93;;;1.45;;
71667;SDS011;59504;54.806;9.640;2023-04-03T11:11:08;5.45;;;1.50;;
71667;SDS011;59504;54.806;9.640;2023-04-03T11:13:41;5.55;;;1.65;;
71667;SDS011;59504;54.806;9.640;2023-04-03T11:16:05;7.32;;;1.80;;
71667;SDS011;59504;54.806;9.640;2023-04-03T11:18:37;6.13;;;1.50;;
71667;SDS011;59504;54.806;9.640;2023-04-03T11:21:21;10.25;;;1.90;;
71667;SDS011;59504;54.806;9.640;2023-04-03T11:23:48;5.18;;;1.40;;
71667;SDS011;59504;54.806;9.640;2023-04-03T11:26:13;6.82;;;1.30;;
71667;SDS011;59504;54.806;9.640;2023-04-03T11:28:39;6.90;;;1.80;;
71667;SDS011;59504;54.806;9.640;2023-04-03T11:31:07;7.82;;;1.55;;
71667;SDS011;59504;54.806;9.640;2023-04-03T11:36:18;8.63;;;1.42;;
71667;SDS011;59504;54.806;9.640;2023-04-03T11:38:43;2.83;;;0.75;;
71667;SDS011;59504;54.806;9.640;2023-04-03T11:41:05;5.70;;;1.23;;
71667;SDS011;59504;54.806;9.640;2023-04-03T11:43:27;3.70;;;1.17;;
71667;SDS011;59504;54.806;9.640;2023-04-03T11:45:49;6.18;;;1.00;;
71667;SDS011;59504;54.806;9.640;2023-04-03T12:05:45;7.00;;;0.90;;
71667;SDS011;59504;54.806;9.640;2023-04-03T12:13:31;5.10;;;0.90;;
71667;SDS011;59504;54.806;9.640;2023-04-03T12:15:51;5.30;;;0.98;;
71667;SDS011;59504;54.806;9.640;2023-04-03T12:18:31;5.88;;;0.70;;
71667;SDS011;59504;54.806;9.640;2023-04-03T12:21:00;4.75;;;0.80;;
71667;SDS011;59504;54.806;9.640;2023-04-03T12:23:30;6.18;;;1.00;;
71667;SDS011;59504;54.806;9.640;2023-04-03T12:25:52;4.90;;;0.73;;
71667;SDS011;59504;54.806;9.640;2023-04-03T12:28:19;3.05;;;0.73;;
71667;SDS011;59504;54.806;9.640;2023-04-03T12:30:39;2.05;;;0.70;;
71667;SDS011;59504;54.806;9.640;2023-04-03T12:33:11;7.53;;;0.98;;
71667;SDS011;59504;54.806;9.640;2023-04-03T12:36:01;5.13;;;0.82;;
71667;SDS011;59504;54.806;9.640;2023-04-03T12:43:41;6.80;;;0.80;;
71667;SDS011;59504;54.806;9.640;2023-04-03T12:46:24;2.75;;;0.70;;
71667;SDS011;59504;54.806;9.640;2023-04-03T12:48:57;6.95;;;1.33;;
71667;SDS011;59504;54.806;9.640;2023-04-03T12:51:21;8.48;;;0.90;;
71667;SDS011;59504;54.806;9.640;2023-04-03T12:53:48;5.55;;;1.17;;
71667;SDS011;59504;54.806;9.640;2023-04-03T12:58:41;6.22;;;1.10;;
71667;SDS011;59504;54.806;9.640;2023-04-03T13:01:08;2.90;;;0.80;;
71667;SDS011;59504;54.806;9.640;2023-04-03T13:03:30;4.53;;;0.98;;
71667;SDS011;59504;54.806;9.640;2023-04-03T13:08:58;4.53;;;1.02;;
71667;SDS011;59504;54.806;9.640;2023-04-03T13:11:22;4.85;;;1.20;;
71667;SDS011;59504;54.806;9.640;2023-04-03T13:13:59;12.20;;;1.48;;
71667;SDS011;59504;54.806;9.640;2023-04-03T13:16:26;2.70;;;1.10;;
71667;SDS011;59504;54.806;9.640;2023-04-03T13:18:49;2.47;;;0.80;;
71667;SDS011;59504;54.806;9.640;2023-04-03T13:21:14;9.40;;;1.00;;
71667;SDS011;59504;54.806;9.640;2023-04-03T13:23:38;4.28;;;1.17;;
71667;SDS011;59504;54.806;9.640;2023-04-03T13:26:00;5.72;;;1.17;;
71667;SDS011;59504;54.806;9.640;2023-04-03T13:28:23;4.45;;;1.05;;
71667;SDS011;59504;54.806;9.640;2023-04-03T13:33:30;2.95;;;0.70;;
71667;SDS011;59504;54.806;9.640;2023-04-03T13:38:58;4.75;;;1.40;;
71667;SDS011;59504;54.806;9.640;2023-04-03T13:41:38;7.00;;;0.80;;
71667;SDS011;59504;54.806;9.640;2023-04-03T13:46:54;6.45;;;1.75;;
71667;SDS011;59504;54.806;9.640;2023-04-03T13:49:20;7.47;;;0.95;;
71667;SDS011;59504;54.806;9.640;2023-04-03T13:51:45;5.03;;;1.13;;
71667;SDS011;59504;54.806;9.640;2023-04-03T13:54:16;5.20;;;1.10;;
71667;SDS011;59504;54.806;9.640;2023-04-03T13:56:58;8.07;;;1.70;;
71667;SDS011;59504;54.806;9.640;2023-04-03T14:04:21;2.17;;;1.05;;
71667;SDS011;59504;54.806;9.640;2023-04-03T14:06:44;7.63;;;1.40;;
71667;SDS011;59504;54.806;9.640;2023-04-03T14:09:04;5.05;;;1.13;;
71667;SDS011;59504;54.806;9.640;2023-04-03T14:11:24;4.45;;;0.98;;
71667;SDS011;59504;54.806;9.640;2023-04-03T14:13:47;7.72;;;1.08;;
71667;SDS011;59504;54.806;9.640;2023-04-03T14:16:07;5.32;;;1.63;;
71667;SDS011;59504;54.806;9.640;2023-04-03T14:18:30;5.33;;;1.10;;
71667;SDS011;59504;54.806;9.640;2023-04-03T14:20:49;7.43;;;1.02;;
71667;SDS011;59504;54.806;9.640;2023-04-03T14:23:09;4.38;;;1.15;;
71667;SDS011;59504;54.806;9.640;2023-04-03T14:25:29;3.45;;;1.15;;
71667;SDS011;59504;54.806;9.640;2023-04-03T14:27:49;3.33;;;0.85;;
71667;SDS011;59504;54.806;9.640;2023-04-03T14:30:17;5.22;;;1.15;;
71667;SDS011;59504;54.806;9.640;2023-04-03T14:32:39;3.33;;;0.82;;
71667;SDS011;59504;54.806;9.640;2023-04-03T14:34:59;4.63;;;1.13;;
71667;SDS011;59504;54.806;9.640;2023-04-03T14:37:23;5.25;;;0.98;;
71667;SDS011;59504;54.806;9.640;2023-04-03T14:39:45;3.80;;;0.95;;
71667;SDS011;59504;54.806;9.640;2023-04-03T14:42:06;7.50;;;1.00;;
71667;SDS011;59504;54.806;9.640;2023-04-03T14:46:49;3.42;;;1.08;;
71667;SDS011;59504;54.806;9.640;2023-04-03T14:49:21;4.05;;;1.00;;
71667;SDS011;59504;54.806;9.640;2023-04-03T14:51:42;9.10;;;1.30;;
71667;SDS011;59504;54.806;9.640;2023-04-03T14:54:01;7.90;;;1.00;;
71667;SDS011;59504;54.806;9.640;2023-04-03T14:56:22;7.43;;;0.98;;
71667;SDS011;59504;54.806;9.640;2023-04-03T14:58:45;4.65;;;0.85;;
71667;SDS011;59504;54.806;9.640;2023-04-03T15:01:09;6.93;;;1.15;;
71667;SDS011;59504;54.806;9.640;2023-04-03T15:03:30;5.55;;;1.13;;
71667;SDS011;59504;54.806;9.640;2023-04-03T15:05:49;4.03;;;1.20;;
71667;SDS011;59504;54.806;9.640;2023-04-03T15:08:13;5.15;;;0.80;;
71667;SDS011;59504;54.806;9.640;2023-04-03T15:10:35;6.07;;;0.77;;
71667;SDS011;59504;54.806;9.640;2023-04-03T15:12:55;7.57;;;0.95;;
71667;SDS011;59504;54.806;9.640;2023-04-03T15:15:15;1.98;;;0.80;;
71667;SDS011;59504;54.806;9.640;2023-04-03T15:17:36;3.92;;;1.05;;
71667;SDS011;59504;54.806;9.640;2023-04-03T15:19:55;5.63;;;1.00;;
71667;SDS011;59504;54.806;9.640;2023-04-03T15:22:15;3.50;;;0.98;;
71667;SDS011;59504;54.806;9.640;2023-04-03T15:24:35;3.47;;;0.80;;
71667;SDS011;59504;54.806;9.640;2023-04-03T15:26:55;3.15;;;0.70;;
71667;SDS011;59504;54.806;9.640;2023-04-03T15:29:14;1.98;;;1.00;;
71667;SDS011;59504;54.806;9.640;2023-04-03T15:31:34;6.13;;;0.90;;
71667;SDS011;59504;54.806;9.640;2023-04-03T15:33:53;5.93;;;1.25;;
71667;SDS011;59504;54.806;9.640;2023-04-03T15:36:12;2.00;;;0.80;;
71667;SDS011;59504;54.806;9.640;2023-04-03T15:38:31;6.45;;;1.20;;
71667;SDS011;59504;54.806;9.640;2023-04-03T15:40:50;6.90;;;1.33;;
71667;SDS011;59504;54.806;9.640;2023-04-03T15:43:10;7.03;;;1.10;;